Latest Weather Observations for Edinburgh

IDS60801

Issued at 8:01 am CDT Sunday 26 March 2017 (issued every 30 minutes, with the page automatically refreshed every 10 minutes)

About weather observations | Map of weather stations | Latest weather observations for SA | Other Formats
Station Details ID: 023083 Name: EDINBURGH RAAF Lat: -34.71 Lon: 138.62 Height: 16.54 m
Data from the previous 72 hours. | See also: Recent months at Edinburgh
Date/Time
CDT
Temp
°C
App
Temp
°C
Dew
Point
°C
Rel
Hum
%
Delta-T
°C
Wind Press
QNH
hPa
Press
MSL
hPa
Rain since
9am
mm
Dir  Spd
km/h
Gust
km/h
Spd
kts
Gust
kts
26/08:00am 23.3 22.6 15.4 61 4.7 NE 13 17 7 9 1011.8 1011.7 0.0
26/07:30am 23.0 22.4 15.6 63 4.4 ENE 13 17 7 9 1011.6 1011.5 0.0
26/07:00am 22.6 22.0 15.7 65 4.1 ENE 13 19 7 10 1011.5 1011.4 0.0
26/06:30am 21.2 20.4 16.2 73 3.0 NE 15 17 8 9 1011.5 1011.4 0.0
26/06:00am 20.7 21.3 16.7 78 2.4 NE 9 11 5 6 1011.8 1011.7 0.0
26/05:30am 20.4 21.0 16.8 80 2.2 NE 9 9 5 5 1011.9 1011.8 0.0
26/05:00am 20.0 22.2 16.6 81 2.1 CALM 0 6 0 3 1012.0 1011.9 0.0
26/04:30am 20.4 22.7 16.8 80 2.2 CALM 0 0 0 0 1012.0 1011.9 0.0
26/04:00am 20.1 22.2 16.3 79 2.3 CALM 0 0 0 0 1012.3 1012.2 0.0
26/03:30am 20.9 23.4 17.3 80 2.2 CALM 0 0 0 0 1012.4 1012.3 0.0
26/03:00am 20.7 23.2 17.3 81 2.1 CALM 0 0 0 0 1013.1 1013.0 0.0
26/02:30am 20.8 22.9 17.2 80 2.2 SSW 2 6 1 3 1013.2 1013.1 0.0
26/02:00am 20.8 22.1 17.0 79 2.3 NE 6 7 3 4 1013.4 1013.3 0.0
26/01:30am 21.2 22.7 17.6 80 2.2 ENE 6 7 3 4 1013.4 1013.3 0.0
26/01:00am 20.5 21.5 16.9 80 2.2 NNE 7 7 4 4 1013.8 1013.7 0.0
26/12:30am 20.9 22.2 17.1 79 2.3 ENE 6 7 3 4 1013.9 1013.8 0.0
26/12:00am 21.0 22.3 17.0 78 2.4 NNE 6 7 3 4 1014.1 1014.0 0.0
 
Date/Time
CDT
Temp
°C
App
Temp
°C
Dew
Point
°C
Rel
Hum
%
Delta-T
°C
Wind Press
QNH
hPa
Press
MSL
hPa
Rain since
9am
mm
Dir  Spd
km/h
Gust
km/h
Spd
kts
Gust
kts
25/11:30pm 21.3 23.7 17.1 77 2.6 CALM 0 0 0 0 1014.5 1014.4 0.0
25/11:00pm 21.4 23.4 17.0 76 2.7 N 2 6 1 3 1014.4 1014.3 0.0
25/10:30pm 21.5 22.4 16.7 74 2.9 NNE 7 11 4 6 1014.5 1014.4 0.0
25/10:00pm 21.9 22.8 16.6 72 3.2 WSW 7 9 4 5 1014.4 1014.3 0.0
25/09:30pm 22.2 22.8 16.7 71 3.4 W 9 9 5 5 1013.8 1013.7 0.0
25/09:00pm 22.5 24.8 16.8 70 3.5 CALM 0 0 0 0 1013.5 1013.4 0.0
25/08:30pm 22.9 24.0 16.7 68 3.8 SSW 6 7 3 4 1013.5 1013.4 0.0
25/08:00pm 22.9 23.9 16.4 67 4.0 S 6 9 3 5 1013.5 1013.4 0.0
25/07:30pm 23.0 22.9 17.0 69 3.7 SSW 13 17 7 9 1013.2 1013.1 0.0
25/07:00pm 23.2 23.8 16.7 67 4.0 WSW 9 13 5 7 1013.3 1013.2 0.0
25/06:30pm 23.4 24.6 16.9 67 4.0 WSW 6 11 3 6 1013.3 1013.2 0.0
25/06:00pm 23.1 23.7 16.9 68 3.8 SW 9 13 5 7 1012.7 1012.6 0.0
25/05:30pm 23.5 23.3 16.8 66 4.1 SW 13 19 7 10 1012.9 1012.8 0.0
25/05:00pm 23.5 22.2 16.8 66 4.1 WSW 19 22 10 12 1013.1 1013.0 0.0
25/04:30pm 24.4 24.1 17.4 65 4.4 WSW 15 17 8 9 1012.8 1012.7 0.0
25/04:00pm 25.0 24.2 17.2 62 4.8 WSW 17 20 9 11 1012.8 1012.7 0.0
25/03:30pm 25.7 24.7 17.6 61 5.1 WSW 19 26 10 14 1012.8 1012.7 0.0
25/03:00pm 26.7 26.8 16.6 54 6.3 SW 11 19 6 10 1012.8 1012.7 0.0
25/02:30pm 26.6 27.2 16.8 55 6.1 SW 9 17 5 9 1013.0 1012.9 0.0
25/02:00pm 25.2 26.1 18.4 66 4.3 SW 11 15 6 8 1013.4 1013.3 0.0
25/01:30pm 24.3 24.6 18.0 68 4.0 WSW 13 17 7 9 1013.7 1013.6 0.0
25/01:00pm 24.4 24.9 18.3 69 3.8 WSW 13 19 7 10 1014.0 1013.9 0.0
25/12:30pm 24.6 25.5 17.6 65 4.4 WSW 9 13 5 7 1014.1 1014.0 0.0
25/12:00pm 24.9 25.5 17.6 64 4.6 SW 11 15 6 8 1014.2 1014.1 0.0
25/11:30am 23.9 25.2 17.6 68 3.9 WSW 7 13 4 7 1014.4 1014.3 0.0
25/11:00am 23.6 24.7 17.1 67 4.0 SW 7 11 4 6 1014.3 1014.2 0.0
25/10:30am 23.0 24.5 17.5 71 3.4 WSW 6 9 3 5 1014.2 1014.1 0.0
25/10:00am 22.5 24.6 17.2 72 3.3 NNE 2 6 1 3 1013.7 1013.6 0.0
25/09:30am 21.5 22.2 16.2 72 3.2 N 7 9 4 5 1013.7 1013.6 0.0
25/09:11am 21.3 22.1 15.8 71 3.3 NNE 6 7 3 4 1013.5 1013.4 0.0
25/09:00am 21.0 22.4 15.3 70 3.4 NNE 2 9 1 5 1013.3 1013.2 0.0
25/08:30am 19.8 21.1 14.2 70 3.2 CALM 0 0 0 0 1013.5 1013.4 0.0
25/08:00am 19.0 20.1 13.6 71 3.1 CALM 0 0 0 0 1013.1 1013.0 0.0
25/07:35am 18.3 19.4 13.4 73 2.8 CALM 0 0 0 0 1012.8 1012.7 0.0
25/07:30am 18.3 19.4 13.4 73 2.8 CALM 0 0 0 0 1012.7 1012.6 0.0
25/07:00am 17.7 17.0 13.2 75 2.5 NNW 9 9 5 5 1012.2 1012.1 0.0
25/06:30am 17.9 17.2 13.2 74 2.6 N 9 11 5 6 1011.9 1011.8 0.0
25/06:00am 18.1 17.4 13.2 73 2.8 N 9 11 5 6 1011.7 1011.6 0.0
25/05:30am 18.7 17.8 13.6 72 2.9 NNE 11 13 6 7 1011.3 1011.2 0.0
25/05:00am 19.3 18.5 13.9 71 3.1 NE 11 13 6 7 1011.0 1010.9 0.0
25/04:30am 19.7 18.9 13.9 69 3.3 NE 11 13 6 7 1010.9 1010.8 0.0
25/04:00am 19.4 18.2 14.0 71 3.1 NE 13 13 7 7 1011.0 1010.9 0.0
25/03:30am 19.9 19.1 14.0 69 3.4 NE 11 13 6 7 1011.1 1011.0 0.0
25/03:00am 20.1 18.9 14.0 68 3.5 NE 13 13 7 7 1011.4 1011.3 0.0
25/02:30am 20.2 19.6 13.6 66 3.8 NNE 9 11 5 6 1011.7 1011.6 0.0
25/02:00am 20.9 20.0 13.6 63 4.2 NNW 11 13 6 7 1011.9 1011.8 0.0
25/01:30am 21.0 21.0 13.7 63 4.2 NNW 6 7 3 4 1011.7 1011.6 0.0
25/01:00am 21.7 20.5 13.9 61 4.5 NNE 13 13 7 7 1011.4 1011.3 0.0
25/12:30am 23.7 23.3 14.1 55 5.6 N 9 13 5 7 1011.6 1011.5 0.0
25/12:00am 23.8 22.7 14.2 55 5.7 NNE 13 15 7 8 1011.7 1011.6 0.0
 
Date/Time
CDT
Temp
°C
App
Temp
°C
Dew
Point
°C
Rel
Hum
%
Delta-T
°C
Wind Press
QNH
hPa
Press
MSL
hPa
Rain since
9am
mm
Dir  Spd
km/h
Gust
km/h
Spd
kts
Gust
kts
24/11:30pm 23.3 23.2 14.0 56 5.5 NE 7 7 4 4 1012.0 1011.9 0.0
24/11:00pm 23.8 24.2 13.6 52 5.9 NE 4 11 2 6 1012.4 1012.3 0.0
24/10:30pm 23.9 25.0 14.6 56 5.5 S 2 9 1 5 1012.6 1012.5 0.0
24/10:00pm 23.6 23.7 14.0 55 5.6 WSW 6 9 3 5 1012.5 1012.4 0.0
24/09:30pm 25.2 25.0 13.7 49 6.8 S 7 9 4 5 1012.4 1012.3 0.0
24/09:00pm 26.1 26.2 13.9 47 7.2 S 6 9 3 5 1012.3 1012.2 0.0
24/08:30pm 26.4 26.4 14.2 47 7.3 S 7 11 4 6 1012.1 1012.0 0.0
24/08:00pm 26.8 26.1 14.2 46 7.5 SSW 11 15 6 8 1011.9 1011.8 0.0
24/07:30pm 27.5 26.1 13.4 41 8.3 SW 13 15 7 8 1011.7 1011.6 0.0
24/07:00pm 28.8 27.6 12.7 37 9.5 SW 11 15 6 8 1011.6 1011.5 0.0
24/06:30pm 30.3 28.8 11.8 32 10.8 SSW 11 15 6 8 1011.1 1011.0 0.0
24/06:00pm 30.9 28.8 12.3 32 11.0 SW 15 19 8 10 1011.4 1011.3 0.0
24/05:30pm 32.0 29.1 12.3 30 11.7 SW 19 24 10 13 1011.3 1011.2 0.0
24/05:00pm 31.4 29.2 13.2 33 10.9 SW 17 24 9 13 1011.5 1011.4 0.0
24/04:30pm 31.5 29.7 13.3 33 10.9 S 15 20 8 11 1011.5 1011.4 0.0
24/04:00pm 30.7 27.6 13.5 35 10.3 WSW 22 28 12 15 1011.5 1011.4 0.0
24/03:30pm 31.2 27.2 13.0 33 10.9 WSW 26 32 14 17 1011.4 1011.3 0.0
24/03:00pm 31.0 27.1 13.3 34 10.6 WSW 26 30 14 16 1011.4 1011.3 0.0
24/02:30pm 32.9 30.8 13.5 30 11.7 W 17 24 9 13 1011.6 1011.5 0.0
24/02:00pm 31.6 29.3 12.9 32 11.1 ENE 17 26 9 14 1012.1 1012.0 0.0
24/01:30pm 31.0 28.1 12.4 32 11.0 NE 19 30 10 16 1012.3 1012.2 0.0
24/01:00pm 30.4 28.0 13.7 36 10.0 NNE 19 24 10 13 1012.9 1012.8 0.0
24/12:30pm 30.1 28.0 14.6 39 9.4 NE 19 28 10 15 1013.4 1013.3 0.0
24/12:00pm 29.0 25.5 14.4 41 8.8 NE 26 32 14 17 1013.6 1013.5 0.0
24/11:30am 28.6 25.1 15.5 45 8.0 NE 28 32 15 17 1013.9 1013.8 0.0
24/11:00am 28.1 24.9 15.4 46 7.8 NE 26 33 14 18 1014.3 1014.2 0.0
24/10:30am 27.3 24.6 15.7 49 7.1 NE 24 32 13 17 1014.5 1014.4 0.0
24/10:00am 26.2 24.2 15.6 52 6.5 NE 20 24 11 13 1014.7 1014.6 0.0
24/09:30am 25.0 22.6 15.3 55 5.8 NE 22 32 12 17 1014.8 1014.7 0.0
24/09:00am 24.2 22.3 15.1 56 5.4 ENE 19 30 10 16 1014.4 1014.3 0.0
24/08:30am 22.6 20.4 14.4 60 4.8 ENE 19 26 10 14 1014.4 1014.3 0.0
24/08:00am 22.1 20.6 14.2 61 4.6 ENE 15 20 8 11 1014.6 1014.5 0.0
24/07:30am 21.7 20.1 13.9 61 4.5 ENE 15 22 8 12 1014.3 1014.2 0.0
24/07:00am 22.0 19.9 13.6 59 4.9 ENE 17 22 9 12 1014.3 1014.2 0.0
24/06:30am 22.1 19.6 13.5 58 5.0 ENE 19 30 10 16 1013.9 1013.8 0.0
24/06:00am 22.3 19.8 13.4 57 5.1 E 19 30 10 16 1014.3 1014.2 0.0
24/05:30am 22.2 20.0 13.3 57 5.1 ENE 17 26 9 14 1014.0 1013.9 0.0
24/05:00am 22.3 20.0 13.1 56 5.3 ENE 17 24 9 13 1013.9 1013.8 0.0
24/04:30am 22.6 20.0 13.1 55 5.5 E 19 30 10 16 1013.9 1013.8 0.0
24/04:00am 22.7 20.0 12.9 54 5.6 E 19 30 10 16 1013.7 1013.6 0.0
24/03:30am 22.8 19.6 13.0 54 5.6 E 22 32 12 17 1013.9 1013.8 0.0
24/03:00am 23.1 19.9 13.0 53 5.8 E 22 32 12 17 1014.1 1014.0 0.0
24/02:30am 23.3 20.5 13.2 53 5.8 ESE 20 32 11 17 1014.7 1014.6 0.0
24/02:00am 22.9 22.1 13.9 57 5.3 E 11 17 6 9 1015.2 1015.1 0.0
24/01:30am 20.1 20.6 14.0 68 3.5 NNW 4 9 2 5 1015.4 1015.3 0.0
24/01:00am 21.2 20.9 13.4 61 4.5 ENE 7 11 4 6 1015.4 1015.3 0.0
24/12:30am 22.4 22.1 14.3 60 4.7 ESE 9 15 5 8 1016.0 1015.9 0.0
24/12:00am 21.7 21.9 14.1 62 4.4 SE 6 9 3 5 1015.9 1015.8 0.0
 
Date/Time
CDT
Temp
°C
App
Temp
°C
Dew
Point
°C
Rel
Hum
%
Delta-T
°C
Wind Press
QNH
hPa
Press
MSL
hPa
Rain since
9am
mm
Dir  Spd
km/h
Gust
km/h
Spd
kts
Gust
kts
23/11:30pm 20.9 21.6 13.4 62 4.3 SW 2 7 1 4 1016.2 1016.1 0.0
23/11:00pm 22.2 21.7 13.8 59 4.9 SE 9 17 5 9 1016.3 1016.2 0.0
23/10:30pm 21.9 21.4 13.8 60 4.7 SE 9 13 5 7 1016.3 1016.2 0.0
23/10:00pm 22.3 21.8 13.9 59 4.9 ESE 9 13 5 7 1016.2 1016.1 0.0
23/09:30pm 22.9 20.9 13.9 57 5.2 SE 17 24 9 13 1016.1 1016.0 0.0
23/09:00pm 23.3 21.7 13.8 55 5.5 SE 15 22 8 12 1015.8 1015.7 0.0
23/08:30pm 24.3 22.7 13.8 52 6.2 SE 15 22 8 12 1015.4 1015.3 0.0
23/08:00pm 25.3 24.0 13.8 49 6.8 SE 13 20 7 11 1014.9 1014.8 0.0
23/07:30pm 26.2 25.3 13.7 46 7.4 ESE 11 17 6 9 1014.7 1014.6 0.0
23/07:00pm 27.3 25.5 13.3 42 8.3 ESE 15 20 8 11 1014.2 1014.1 0.0
23/06:30pm 28.3 26.0 13.0 39 9.0 ESE 17 28 9 15 1014.2 1014.1 0.0
23/06:00pm 28.9 27.8 13.2 38 9.3 ESE 11 22 6 12 1014.1 1014.0 0.0
23/05:30pm 27.4 26.8 15.7 48 7.2 SW 13 17 7 9 1014.1 1014.0 0.0
23/05:00pm 26.4 24.8 16.1 53 6.3 W 19 24 10 13 1014.3 1014.2 0.0
23/04:30pm 26.1 24.2 15.8 53 6.3 WSW 20 28 11 15 1014.5 1014.4 0.0
23/04:00pm 26.3 24.5 16.0 53 6.3 WSW 20 24 11 13 1014.5 1014.4 0.0
23/03:30pm 25.3 22.9 15.3 54 6.0 WSW 22 28 12 15 1014.7 1014.6 0.0
23/03:00pm 24.8 21.9 15.1 54 5.8 SW 24 30 13 16 1014.9 1014.8 0.0
23/02:30pm 25.1 22.4 14.6 52 6.3 WSW 22 32 12 17 1015.2 1015.1 0.0
23/02:00pm 24.9 22.1 14.4 52 6.2 WSW 22 28 12 15 1015.4 1015.3 0.0
23/01:30pm 24.7 21.8 13.9 51 6.3 W 22 32 12 17 1016.0 1015.9 0.0
23/01:00pm 24.7 23.9 13.0 48 6.8 SSW 9 17 5 9 1016.8 1016.7 0.0
23/12:30pm 24.5 24.0 13.7 51 6.3 SSW 9 17 5 9 1017.3 1017.2 0.0
23/12:00pm 23.3 22.5 12.9 52 6.0 ESE 9 15 5 8 1017.8 1017.7 0.0
23/11:30am 22.1 21.2 12.6 55 5.4 ESE 9 13 5 7 1018.3 1018.2 0.0
23/11:00am 22.1 21.9 13.5 58 5.0 ESE 7 13 4 7 1018.7 1018.6 0.0
23/10:30am 20.8 20.0 13.0 61 4.4 E 9 17 5 9 1018.4 1018.3 0.0
23/10:00am 19.7 19.1 13.4 67 3.6 ESE 9 15 5 8 1018.4 1018.3 0.0
23/09:30am 19.2 18.5 13.2 68 3.4 S 9 13 5 7 1018.9 1018.8 0.0
23/09:00am 18.7 17.6 13.1 70 3.2 SE 11 15 6 8 1018.6 1018.5 0.0
23/08:30am 18.4 17.3 13.1 71 3.0 SE 11 17 6 9 1018.4 1018.3 0.0

Other Formats:

Comma delimited format used in spreadsheet applications
http://www.bom.gov.au/fwo/IDS60801/IDS60801.95676.axf

JavaScript Object Notation format (JSON) in row-major order
http://www.bom.gov.au/fwo/IDS60801/IDS60801.95676.json